Strona główna
METAR-TAF:

METAR-TAF

Lotnisko :

Port lotniczy Kasane

Kasane, Botswana

Szerokość geograficzna: 17-49S, Długość geograficzna: 025-09E, wysokość: 968 m

Aktualna obserwacja pogody

Raport powstał 7 godziny i 6 minut temu, godzina 18:00 UTC
Wiatr 3 kt od północny wschód
Temperatura 25°C
Wilgotność 83%
Ciśnienie 1012 hPa
Widzialność 10 km lub więcej
Brak chmur poniżej 1500 m i brak chmur cumulonimbus

METAR: FBKE 221800Z 04003KT CAVOK 25/22 Q1012

czas: 03:06 (01:06 UTC)

Prognoza

Raport powstał 13 godziny i 6 minut temu, godzina 12:00 UTC
Prognoza ważna od 22 godzina 15 UTC do 22 godzina 24 UTC
Wiatr 5 kt od północno-północny wschód
Widzialność 10 km lub więcej
Rozproszone chmury na wysokości 3000 ft
Mało chmury na wysokości 4000 ft, Cumulonimbus.
Prawdopodobieństwo 30% :
Przejściowo
od 22 godzina 15 UTC do 22 godzina 18 UTC
burza, deszcz

TAF: FBKE 221200Z 2215/2224 03005KT 9999 SCT030 FEW040CB PROB30 TEMPO 2215/2218 TSRA

Obserwacja i prognoza pogody dla ponad 4000 lotnisk (raport METAR i TAF).

Dostępne stacje oznaczono żółtymi i czerwonymi punktami na mapie.

Najedź kursorem aby zobaczyć nazwę stacji.

Kliknij aby zobaczyć obserwacje i prognozy pogody.

Aby zmienić mapę: kliknij na zielony przycisk z czarnym krzyżykiem, aby powiększyć; na zielony przycisk z myślnikiem, aby pomniejszyć; na zielone strzałki, aby przejść do map sąsiednich.


METAR-TAF: